Time;durP1;ratioP1;P1;durP2;ratioP2;P2;SDS_P1;SDS_P2;PMS_P1;PMS_P2;Temp;Humidity;BMP_temperature;BMP_pressure;BME280_temperature;BME280_humidity;BME280_pressure;Samples;Min_cycle;Max_cycle;Signal;HPM_P1;HPM_P2
2022/08/17 04:02:41;;;;;;;9.60;8.63;;;15.90;99.90;;;;;;4933317;29;20073;-74
2022/08/17 04:05:08;;;;;;;9.07;8.15;;;16.00;99.90;;;;;;4936463;28;20052;-74
2022/08/17 04:07:34;;;;;;;9.68;8.38;;;16.00;99.90;;;;;;4935090;29;20516;-75
2022/08/17 04:09:59;;;;;;;11.35;8.38;;;16.00;99.90;;;;;;4936882;28;20040;-76
2022/08/17 04:12:29;;;;;;;12.60;8.05;;;16.00;99.90;;;;;;4936513;28;20032;-74
2022/08/17 04:14:55;;;;;;;9.60;8.60;;;16.00;99.90;;;;;;4935746;29;20078;-74
2022/08/17 04:17:23;;;;;;;10.70;8.35;;;16.00;99.90;;;;;;4936512;28;20523;-76
2022/08/17 04:19:49;;;;;;;9.80;8.80;;;16.00;99.90;;;;;;4937995;29;20071;-74
2022/08/17 04:22:14;;;;;;;10.93;8.32;;;15.90;99.90;;;;;;4947734;28;20087;-75
2022/08/17 04:24:40;;;;;;;9.07;8.02;;;15.80;99.90;;;;;;4944347;28;20046;-74
2022/08/17 04:27:05;;;;;;;10.40;8.57;;;15.80;99.90;;;;;;4940208;28;20123;-75
2022/08/17 04:29:31;;;;;;;9.77;8.88;;;15.80;99.90;;;;;;4939606;28;20103;-75
2022/08/17 04:31:57;;;;;;;11.18;9.25;;;15.70;99.90;;;;;;4939147;28;20032;-75
2022/08/17 04:34:23;;;;;;;13.27;8.70;;;15.50;99.90;;;;;;4939475;28;20039;-74
2022/08/17 04:36:49;;;;;;;10.82;9.20;;;15.50;99.90;;;;;;4939855;28;20059;-75
2022/08/17 04:39:14;;;;;;;9.68;8.68;;;15.40;99.90;;;;;;4939696;28;20075;-74
2022/08/17 04:44:24;;;;;;;11.00;9.48;;;15.50;99.90;;;;;;4939597;29;20048;-74
2022/08/17 04:46:50;;;;;;;10.70;9.60;;;15.50;99.90;;;;;;4939351;28;20032;-74
2022/08/17 04:49:16;;;;;;;14.80;10.23;;;15.50;99.90;;;;;;4939527;28;20042;-74
2022/08/17 04:51:44;;;;;;;14.23;12.23;;;15.60;99.90;;;;;;4939096;28;20561;-74
2022/08/17 04:54:13;;;;;;;14.77;11.98;;;15.60;99.90;;;;;;4937652;29;20131;-75
2022/08/17 04:56:39;;;;;;;14.70;12.40;;;15.70;99.90;;;;;;4939049;28;20470;-74
2022/08/17 04:59:08;;;;;;;15.07;12.25;;;15.90;99.90;;;;;;4937676;28;20082;-74
2022/08/17 05:01:36;;;;;;;14.52;12.20;;;16.20;99.90;;;;;;4937107;29;20506;-75
2022/08/17 05:04:05;;;;;;;12.88;11.52;;;16.40;99.90;;;;;;4938695;28;20051;-74
2022/08/17 05:06:31;;;;;;;15.02;11.85;;;16.40;99.90;;;;;;4939113;28;20043;-75
2022/08/17 05:08:58;;;;;;;14.48;11.88;;;16.60;99.90;;;;;;4939165;28;20043;-74
2022/08/17 05:11:25;;;;;;;14.82;11.88;;;16.70;99.90;;;;;;4938689;28;20036;-74
2022/08/17 05:13:51;;;;;;;14.07;10.85;;;16.70;99.90;;;;;;4938968;28;20042;-74
2022/08/17 05:16:18;;;;;;;11.80;10.45;;;16.80;99.90;;;;;;4938756;28;20043;-74
2022/08/17 05:18:44;;;;;;;14.15;10.45;;;16.80;99.90;;;;;;4939131;28;20032;-74
2022/08/17 05:21:10;;;;;;;12.70;11.35;;;16.90;99.90;;;;;;4938587;28;20502;-74
2022/08/17 05:23:35;;;;;;;14.52;10.75;;;17.00;99.90;;;;;;4938787;28;20051;-75
2022/08/17 05:26:02;;;;;;;15.05;11.18;;;17.10;99.90;;;;;;4938676;28;20032;-74
2022/08/17 05:28:28;;;;;;;11.32;9.70;;;17.30;99.90;;;;;;4938876;28;20120;-75
2022/08/17 05:30:56;;;;;;;11.57;9.82;;;17.40;99.90;;;;;;4937968;28;20119;-74
2022/08/17 05:33:25;;;;;;;11.75;9.90;;;17.60;99.90;;;;;;4939108;28;20415;-75
2022/08/17 05:35:53;;;;;;;10.82;9.43;;;17.80;99.90;;;;;;4938245;28;20071;-74
2022/08/17 05:38:21;;;;;;;11.50;9.98;;;18.00;99.90;;;;;;4938270;28;20038;-74
2022/08/17 05:40:47;;;;;;;11.73;9.90;;;18.10;99.90;;;;;;4938065;28;20043;-74
2022/08/17 05:43:17;;;;;;;11.38;9.48;;;18.30;99.90;;;;;;4937050;29;20052;-74
2022/08/17 05:45:54;;;;;;;11.85;8.82;;;18.40;99.90;;;;;;4938450;28;20042;-74
2022/08/17 05:48:19;;;;;;;13.90;9.85;;;18.50;99.90;;;;;;4938795;28;20498;-74
2022/08/17 05:51:03;;;;;;;11.65;10.05;;;18.60;99.90;;;;;;4938213;28;20048;-75
2022/08/17 05:53:32;;;;;;;12.00;10.75;;;18.80;99.90;;;;;;4938594;28;20046;-75
2022/08/17 05:56:18;;;;;;;13.02;10.25;;;18.80;99.90;;;;;;4938006;29;20115;-74
2022/08/17 05:59:17;;;;;;;11.77;9.88;;;18.90;99.90;;;;;;4938512;28;20037;-74
2022/08/17 06:01:47;;;;;;;11.98;10.15;;;19.00;99.90;;;;;;4938250;28;20092;-75
2022/08/17 06:04:38;;;;;;;10.85;9.40;;;19.20;99.90;;;;;;4937847;29;20047;-75
2022/08/17 06:07:09;;;;;;;10.50;9.13;;;19.40;99.90;;;;;;4938646;28;20032;-76
2022/08/17 06:09:47;;;;;;;11.07;9.35;;;19.70;99.90;;;;;;4938169;28;20028;-75
2022/08/17 06:12:36;;;;;;;11.55;8.23;;;19.90;99.90;;;;;;4938835;28;20537;-75
2022/08/17 06:15:40;;;;;;;12.20;8.30;;;20.10;99.90;;;;;;4938627;28;20492;-74
2022/08/17 06:18:09;;;;;;;8.18;7.38;;;20.30;99.90;;;;;;4933231;29;20052;-74
2022/08/17 06:20:44;;;;;;;11.90;7.28;;;20.60;99.90;;;;;;4938099;28;20486;-75
2022/08/17 06:23:17;;;;;;;8.88;7.95;;;20.60;99.90;;;;;;4938640;28;20131;-76
2022/08/17 06:25:48;;;;;;;11.85;7.82;;;20.60;99.90;;;;;;4938113;28;20479;-76
2022/08/17 06:28:23;;;;;;;10.23;7.88;;;20.50;99.90;;;;;;4938237;28;20036;-77
2022/08/17 06:30:56;;;;;;;10.57;7.50;;;20.40;99.90;;;;;;4937781;29;20027;-77
2022/08/17 06:33:27;;;;;;;9.65;7.80;;;20.40;99.90;;;;;;4938720;28;20033;-77
2022/08/17 06:36:02;;;;;;;7.85;7.00;;;20.30;99.90;;;;;;4938510;28;20036;-77
2022/08/17 06:38:54;;;;;;;10.82;7.35;;;20.20;99.90;;;;;;4938116;29;20502;-76
2022/08/17 06:41:38;;;;;;;10.07;7.50;;;20.20;99.90;;;;;;4938448;28;20036;-76
2022/08/17 06:44:34;;;;;;;7.93;6.82;;;20.10;99.90;;;;;;4937457;28;20140;-77
2022/08/17 06:47:11;;;;;;;9.20;8.05;;;20.10;99.90;;;;;;4937162;29;20585;-77
2022/08/17 06:50:14;;;;;;;10.38;7.40;;;20.10;99.90;;;;;;4938857;28;20071;-76
2022/08/17 06:52:52;;;;;;;8.52;7.18;;;20.10;99.90;;;;;;4939530;29;20048;-76
2022/08/17 06:55:45;;;;;;;10.00;6.72;;;20.20;99.90;;;;;;4956718;28;20036;-76
2022/08/17 06:58:12;;;;;;;9.52;7.40;;;20.30;99.90;;;;;;4936165;29;20048;-77
2022/08/17 07:00:41;;;;;;;10.85;6.65;;;20.50;99.90;;;;;;4937627;28;20048;-77
2022/08/17 07:03:07;;;;;;;7.63;6.18;;;20.60;99.90;;;;;;4937801;28;20060;-76
2022/08/17 07:05:46;;;;;;;8.07;6.45;;;21.00;99.90;;;;;;4937263;28;20107;-76
2022/08/17 07:08:32;;;;;;;11.55;6.78;;;21.40;99.90;;;;;;4937654;28;20068;-76
2022/08/17 07:11:05;;;;;;;7.68;6.38;;;21.90;99.90;;;;;;4935672;28;20134;-76
2022/08/17 07:14:01;;;;;;;10.48;6.18;;;22.40;99.90;;;;;;4937282;28;20039;-76
2022/08/17 07:16:33;;;;;;;6.97;6.28;;;22.70;99.90;;;;;;4937092;28;20032;-76
2022/08/17 07:18:59;;;;;;;6.20;5.60;;;23.00;99.90;;;;;;4936035;29;20043;-76
2022/08/17 07:21:50;;;;;;;7.63;5.80;;;23.30;99.90;;;;;;4935580;29;20051;-76
2022/08/17 07:24:36;;;;;;;7.55;5.53;;;23.40;99.90;;;;;;4935181;29;20040;-77
2022/08/17 07:27:08;;;;;;;7.55;5.30;;;24.00;99.90;;;;;;4937599;28;20028;-75
2022/08/17 07:29:43;;;;;;;6.28;5.28;;;24.30;99.90;;;;;;4938655;28;20040;-80
2022/08/17 07:32:13;;;;;;;5.53;4.93;;;24.50;99.90;;;;;;4939554;28;20047;-80
2022/08/17 07:35:15;;;;;;;6.32;5.10;;;24.50;99.90;;;;;;4940154;28;20036;-75
2022/08/17 07:38:06;;;;;;;6.22;5.60;;;24.30;99.90;;;;;;4916329;29;20482;-75
2022/08/17 07:40:38;;;;;;;5.47;4.97;;;24.50;99.90;;;;;;4936806;28;20071;-75
2022/08/17 07:43:07;;;;;;;7.35;5.05;;;24.50;99.90;;;;;;4937575;28;20134;-75
2022/08/17 07:48:24;;;;;;;6.35;4.80;;;24.60;99.90;;;;;;4939971;29;20066;-76
2022/08/17 07:50:52;;;;;;;5.90;4.90;;;24.70;99.90;;;;;;4939830;29;20036;-78
2022/08/17 07:53:26;;;;;;;5.65;5.15;;;24.80;99.90;;;;;;4942535;28;20493;-77
2022/08/17 07:56:30;;;;;;;6.13;4.85;;;25.00;99.90;;;;;;4942394;28;20070;-78
2022/08/17 07:59:52;;;;;;;7.72;5.20;;;25.30;99.20;;;;;;4943814;28;20040;-78
2022/08/17 08:02:25;;;;;;;6.78;5.20;;;25.80;97.30;;;;;;4933207;28;20048;-77
2022/08/17 08:05:22;;;;;;;8.57;5.32;;;25.80;97.00;;;;;;4938882;28;20048;-77
2022/08/17 08:07:53;;;;;;;7.82;4.90;;;26.30;97.00;;;;;;4938820;29;20048;-77
2022/08/17 08:10:41;;;;;;;7.07;5.18;;;26.60;95.70;;;;;;4938570;28;20050;-77
2022/08/17 08:13:10;;;;;;;8.15;5.50;;;26.60;94.40;;;;;;4938969;29;20132;-77
2022/08/17 08:15:40;;;;;;;6.70;5.00;;;26.50;93.90;;;;;;4937635;28;20096;-76
2022/08/17 08:18:24;;;;;;;6.18;5.35;;;26.70;93.50;;;;;;4936507;28;20054;-77
2022/08/17 08:21:09;;;;;;;9.07;5.57;;;27.00;92.00;;;;;;4937205;28;20032;-77
2022/08/17 08:24:19;;;;;;;5.80;5.18;;;26.90;93.10;;;;;;4938312;28;20047;-77
2022/08/17 08:27:12;;;;;;;6.07;5.20;;;26.70;93.50;;;;;;4925045;28;20537;-77
2022/08/17 08:29:57;;;;;;;6.35;5.25;;;26.80;90.50;;;;;;4950990;28;20043;-79
2022/08/17 08:32:51;;;;;;;7.25;5.45;;;26.60;90.60;;;;;;4951798;29;20480;-79
2022/08/17 08:35:25;;;;;;;7.72;5.70;;;26.40;90.80;;;;;;4951738;29;20032;-79
2022/08/17 08:38:29;;;;;;;5.70;5.20;;;26.50;91.00;;;;;;4952473;29;20029;-79
2022/08/17 08:40:58;;;;;;;5.28;4.78;;;26.40;90.80;;;;;;4952451;29;20032;-79
2022/08/17 08:43:36;;;;;;;5.72;4.95;;;26.50;91.00;;;;;;4951651;29;20100;-80
2022/08/17 08:46:14;;;;;;;8.30;4.97;;;26.40;91.30;;;;;;4953050;28;20016;-79
2022/08/17 08:48:52;;;;;;;5.75;5.07;;;26.50;90.00;;;;;;4954269;28;20032;-79
2022/08/17 08:51:39;;;;;;;5.57;5.00;;;26.90;89.80;;;;;;4953808;28;20032;-79
2022/08/17 08:54:14;;;;;;;6.80;4.63;;;27.50;88.30;;;;;;4951915;29;20060;-79
2022/08/17 08:56:47;;;;;;;5.80;4.80;;;27.90;86.70;;;;;;4953893;29;20103;-79
2022/08/17 08:59:34;;;;;;;7.13;4.70;;;28.10;87.00;;;;;;4955221;28;20024;-79
2022/08/17 09:02:37;;;;;;;5.30;4.80;;;28.30;84.20;;;;;;4954417;29;20056;-79
2022/08/17 09:05:10;;;;;;;5.95;4.53;;;27.80;86.80;;;;;;4958566;28;20044;-79
2022/08/17 09:08:03;;;;;;;6.38;4.90;;;27.70;85.60;;;;;;4960945;29;20016;-79
2022/08/17 09:10:33;;;;;;;8.98;5.30;;;27.50;84.60;;;;;;4960777;29;20044;-79
2022/08/17 09:13:11;;;;;;;7.75;4.65;;;27.50;87.70;;;;;;4960111;29;20095;-80
2022/08/17 09:15:44;;;;;;;6.43;5.05;;;27.40;87.40;;;;;;4957597;28;20036;-77
2022/08/17 09:18:20;;;;;;;8.43;5.32;;;27.30;88.30;;;;;;4956286;29;20028;-80
2022/08/17 09:20:56;;;;;;;7.88;5.00;;;27.20;88.10;;;;;;4957615;28;20028;-80
2022/08/17 09:23:31;;;;;;;6.85;4.55;;;27.30;87.40;;;;;;4954942;29;20052;-78
2022/08/17 09:26:04;;;;;;;7.20;4.63;;;27.40;87.60;;;;;;4956575;28;20061;-78
2022/08/17 09:28:37;;;;;;;8.32;4.40;;;27.20;88.10;;;;;;4945528;28;20040;-78
2022/08/17 09:31:21;;;;;;;7.30;5.10;;;27.00;87.40;;;;;;4938899;28;20041;-78
2022/08/17 09:33:47;;;;;;;6.68;4.75;;;26.80;87.10;;;;;;4938804;28;20037;-77
2022/08/17 09:36:28;;;;;;;6.05;4.65;;;27.10;90.00;;;;;;4937157;28;20028;-78
2022/08/17 09:39:09;;;;;;;10.95;4.55;;;27.50;86.70;;;;;;4938832;28;20036;-78
2022/08/17 09:41:47;;;;;;;7.85;4.75;;;28.00;84.10;;;;;;4938674;28;20059;-78
2022/08/17 09:44:23;;;;;;;5.70;3.92;;;28.20;81.60;;;;;;4936775;29;20063;-78
2022/08/17 09:46:59;;;;;;;8.10;4.97;;;28.40;81.80;;;;;;4938509;28;20028;-78
2022/08/17 09:49:54;;;;;;;7.30;4.68;;;28.30;80.80;;;;;;4938411;28;20178;-78
2022/08/17 09:52:26;;;;;;;6.10;4.00;;;28.10;83.60;;;;;;4934502;28;20048;-78
2022/08/17 09:54:54;;;;;;;5.28;4.43;;;28.10;81.70;;;;;;4938194;28;20044;-78
2022/08/17 09:57:36;;;;;;;7.63;4.97;;;28.10;84.90;;;;;;4938628;28;20048;-78
2022/08/17 10:00:15;;;;;;;5.95;4.80;;;28.20;83.40;;;;;;4943854;28;20121;-78
2022/08/17 10:02:59;;;;;;;6.47;4.88;;;28.00;82.50;;;;;;4941394;29;20075;-78
2022/08/17 10:05:38;;;;;;;6.97;4.47;;;27.90;86.20;;;;;;4944316;29;20076;-78
2022/08/17 10:08:34;;;;;;;6.53;4.25;;;27.70;85.60;;;;;;4944969;29;20597;-78
2022/08/17 10:12:14;;;;;;;6.38;4.20;;;27.50;84.20;;;;;;4944301;29;20485;-78
2022/08/17 10:14:37;;;;;;;4.45;4.00;;;27.10;84.30;;;;;;4969912;23;20025;-76
2022/08/17 10:17:19;;;;;;;4.57;4.00;;;26.80;86.40;;;;;;4953565;28;20031;-76
2022/08/17 10:20:01;;;;;;;6.75;4.28;;;26.40;86.10;;;;;;4957403;28;20468;-76
2022/08/17 10:28:57;;;;;;;5.30;4.38;;;25.70;90.20;;;;;;4957457;28;20059;-76
2022/08/17 10:31:36;;;;;;;5.53;4.50;;;25.40;92.30;;;;;;4957431;28;20032;-76
2022/08/17 10:34:16;;;;;;;6.50;5.15;;;25.10;92.40;;;;;;4955451;28;20098;-76
2022/08/17 10:37:01;;;;;;;5.93;5.28;;;24.90;94.50;;;;;;4955986;28;20513;-76
2022/08/17 10:39:33;;;;;;;8.43;5.78;;;24.70;96.90;;;;;;4957011;28;20031;-76
2022/08/17 10:42:14;;;;;;;7.43;5.80;;;24.40;99.90;;;;;;4957243;28;20076;-76
2022/08/17 10:44:49;;;;;;;8.13;6.55;;;24.20;99.90;;;;;;4956677;28;20501;-76
2022/08/17 10:47:17;;;;;;;8.93;7.00;;;24.10;99.90;;;;;;4957076;28;20458;-76
2022/08/17 10:49:52;;;;;;;9.07;7.32;;;24.00;99.90;;;;;;4956420;28;20498;-76
2022/08/17 10:52:26;;;;;;;8.10;6.50;;;23.70;99.90;;;;;;4956978;28;20028;-76
2022/08/17 10:54:55;;;;;;;7.43;6.72;;;23.50;99.90;;;;;;4955071;28;20036;-76
2022/08/17 10:57:32;;;;;;;10.65;7.45;;;23.20;99.90;;;;;;4956875;28;20458;-77
2022/08/17 11:00:02;;;;;;;7.70;7.00;;;23.10;99.90;;;;;;4955650;28;20137;-77
2022/08/17 11:02:41;;;;;;;8.10;7.30;;;22.80;99.90;;;;;;4956205;28;20027;-77
2022/08/17 11:05:16;;;;;;;8.60;7.80;;;22.60;99.90;;;;;;4956349;28;20135;-77
2022/08/17 11:08:04;;;;;;;7.70;7.00;;;22.60;99.90;;;;;;4955124;28;20031;-77
2022/08/17 11:11:07;;;;;;;9.13;7.50;;;22.60;99.90;;;;;;4956616;28;20062;-77
2022/08/17 11:13:58;;;;;;;7.00;6.30;;;22.50;99.90;;;;;;4956668;28;20038;-77
2022/08/17 11:17:10;;;;;;;9.05;7.30;;;22.50;99.90;;;;;;4955882;28;20059;-77
2022/08/17 11:19:56;;;;;;;8.75;7.82;;;22.40;99.90;;;;;;4955024;28;20044;-77
2022/08/17 11:22:57;;;;;;;8.07;7.32;;;22.40;99.90;;;;;;4957136;28;20475;-78
2022/08/17 11:25:47;;;;;;;8.82;7.75;;;22.40;99.90;;;;;;4956037;28;20536;-77
2022/08/17 11:28:20;;;;;;;9.65;8.25;;;22.60;99.90;;;;;;4956244;28;20040;-77
2022/08/17 11:30:51;;;;;;;8.70;7.80;;;22.50;99.90;;;;;;4957009;28;20035;-78
2022/08/17 11:33:29;;;;;;;9.25;7.45;;;22.60;99.90;;;;;;4956044;28;20028;-77
2022/08/17 11:36:20;;;;;;;10.73;7.82;;;22.70;99.90;;;;;;4956744;28;20114;-81
2022/08/17 11:39:04;;;;;;;9.38;7.60;;;22.70;99.90;;;;;;4957411;28;20035;-76
2022/08/17 11:41:45;;;;;;;10.70;8.00;;;22.80;99.90;;;;;;4955130;28;20039;-77
2022/08/17 11:44:37;;;;;;;7.90;7.20;;;22.80;99.90;;;;;;4959129;28;20099;-80
2022/08/17 11:53:37;;;;;;;7.18;6.47;;;23.20;99.90;;;;;;4957291;28;20035;-77
2022/08/17 11:56:08;;;;;;;9.30;6.72;;;23.30;99.90;;;;;;4956112;28;20555;-78
2022/08/17 11:58:43;;;;;;;7.90;6.70;;;23.20;99.90;;;;;;4958830;28;20036;-76
2022/08/17 12:01:12;;;;;;;8.98;7.15;;;23.00;99.90;;;;;;4957971;28;20812;-77
2022/08/17 12:03:37;;;;;;;10.10;7.15;;;22.90;99.90;;;;;;4953454;28;20047;-76
2022/08/17 12:06:16;;;;;;;11.20;8.35;;;22.60;99.90;;;;;;4954622;28;20399;-76
2022/08/17 12:08:49;;;;;;;13.10;9.38;;;22.10;99.90;;;;;;4951459;28;20564;-75
2022/08/17 12:11:37;;;;;;;11.70;9.90;;;21.80;99.90;;;;;;4958682;28;20040;-80
2022/08/17 12:14:03;;;;;;;11.50;9.35;;;21.50;99.90;;;;;;4952367;28;20055;-78
2022/08/17 12:16:29;;;;;;;15.20;9.25;;;21.20;99.90;;;;;;4938101;29;20036;-80
2022/08/17 12:19:01;;;;;;;11.18;9.95;;;20.90;99.90;;;;;;4946620;28;20040;-81
2022/08/17 12:21:39;;;;;;;12.10;10.90;;;20.70;99.90;;;;;;4946010;28;20060;-80
2022/08/17 12:24:35;;;;;;;11.88;10.00;;;20.80;99.90;;;;;;4942891;29;20077;-80
2022/08/17 12:27:03;;;;;;;16.75;9.20;;;20.90;99.90;;;;;;4942197;29;20046;-80
2022/08/17 12:29:30;;;;;;;12.32;9.68;;;21.00;99.90;;;;;;4939416;29;20036;-79
2022/08/17 12:31:57;;;;;;;11.43;10.20;;;21.10;99.90;;;;;;4958852;28;20036;-80
2022/08/17 12:34:35;;;;;;;11.27;10.18;;;21.40;99.90;;;;;;4955817;28;20043;-76
2022/08/17 12:37:05;;;;;;;14.98;9.68;;;21.60;99.90;;;;;;4956551;28;20031;-76
2022/08/17 12:39:31;;;;;;;12.60;9.65;;;21.80;99.90;;;;;;4955252;28;20486;-77
2022/08/17 12:41:59;;;;;;;11.70;8.68;;;22.00;99.90;;;;;;4950207;28;20032;-79
2022/08/17 12:44:34;;;;;;;12.55;8.75;;;21.90;99.90;;;;;;4949041;28;20055;-77
2022/08/17 12:47:17;;;;;;;11.00;9.23;;;22.00;99.90;;;;;;4950310;28;20522;-79
2022/08/17 12:49:47;;;;;;;12.82;9.80;;;22.30;99.90;;;;;;4949278;28;20042;-78
2022/08/17 12:52:18;;;;;;;11.50;9.05;;;22.30;99.90;;;;;;4947370;28;20189;-81
2022/08/17 12:54:54;;;;;;;11.80;8.93;;;22.80;99.90;;;;;;4949284;28;20035;-77
2022/08/17 12:57:24;;;;;;;10.20;7.95;;;23.20;99.90;;;;;;4940971;29;20039;-79
2022/08/17 12:59:54;;;;;;;10.10;7.95;;;23.40;99.90;;;;;;4939939;29;20068;-78
2022/08/17 13:02:27;;;;;;;9.77;8.15;;;23.60;99.90;;;;;;4940397;29;20040;-78
2022/08/17 13:04:55;;;;;;;11.85;9.05;;;23.70;99.90;;;;;;4941065;28;20050;-81
2022/08/17 13:07:27;;;;;;;10.07;7.68;;;24.10;99.90;;;;;;4941872;28;20463;-82
2022/08/17 13:09:52;;;;;;;10.30;8.25;;;24.40;99.90;;;;;;4941725;29;20036;-77
2022/08/17 13:12:29;;;;;;;8.95;8.05;;;24.20;99.90;;;;;;4941385;28;20533;-75
2022/08/17 13:14:56;;;;;;;9.27;7.95;;;24.10;99.90;;;;;;4956081;28;20040;-81
2022/08/17 13:17:31;;;;;;;12.65;8.23;;;24.00;99.90;;;;;;4962089;28;20035;-80
2022/08/17 13:19:56;;;;;;;10.48;8.07;;;24.00;99.90;;;;;;4962241;28;20470;-81
2022/08/17 13:22:24;;;;;;;10.13;8.05;;;24.00;99.90;;;;;;4947080;28;20067;-82
2022/08/17 13:25:07;;;;;;;11.50;7.97;;;23.90;99.90;;;;;;4939824;28;20112;-79
2022/08/17 13:27:33;;;;;;;10.60;7.68;;;23.70;99.90;;;;;;4939666;28;20584;-79
2022/08/17 13:30:10;;;;;;;10.70;8.90;;;23.70;99.90;;;;;;4939423;28;20111;-78
2022/08/17 13:32:41;;;;;;;15.73;9.02;;;23.70;99.90;;;;;;4938779;28;20040;-78
2022/08/17 13:35:36;;;;;;;9.73;8.73;;;23.60;99.90;;;;;;4941870;28;20044;-79
2022/08/17 13:38:29;;;;;;;10.80;8.27;;;23.70;99.90;;;;;;4939157;29;20107;-78
2022/08/17 13:40:54;;;;;;;9.00;8.10;;;23.50;99.90;;;;;;4941206;28;20072;-79
2022/08/17 13:43:44;;;;;;;9.63;8.57;;;23.40;99.90;;;;;;4946730;28;20074;-79
2022/08/17 13:46:22;;;;;;;9.35;7.57;;;23.60;99.90;;;;;;4959300;28;20043;-79
2022/08/17 13:49:04;;;;;;;10.52;8.32;;;23.80;99.90;;;;;;4944904;28;20028;-77
2022/08/17 13:51:45;;;;;;;9.65;7.60;;;23.90;99.90;;;;;;4937569;29;20040;-79
2022/08/17 13:54:30;;;;;;;9.63;7.85;;;24.00;99.90;;;;;;4937186;29;20131;-80
2022/08/17 13:57:06;;;;;;;10.05;7.50;;;24.20;99.90;;;;;;4943462;28;20480;-78
2022/08/17 13:59:34;;;;;;;10.13;6.80;;;24.30;99.90;;;;;;4957847;28;20032;-77
2022/08/17 14:02:01;;;;;;;8.65;7.00;;;24.40;99.90;;;;;;4956466;28;20047;-78
2022/08/17 14:04:30;;;;;;;9.05;6.93;;;24.70;99.90;;;;;;4957446;28;20497;-77
2022/08/17 14:07:08;;;;;;;7.97;6.63;;;25.20;99.90;;;;;;4956327;28;20039;-83
2022/08/17 14:09:46;;;;;;;9.05;6.65;;;26.50;99.90;;;;;;4957196;28;20138;-80
2022/08/17 14:12:15;;;;;;;9.05;5.55;;;28.40;99.90;;;;;;4953936;28;20813;-79
2022/08/17 14:14:41;;;;;;;7.45;6.03;;;29.90;99.90;;;;;;4939433;28;20044;-79
2022/08/17 14:17:08;;;;;;;5.18;4.75;;;30.30;95.80;;;;;;4937723;29;20039;-79
2022/08/17 14:19:34;;;;;;;6.32;5.05;;;30.50;96.40;;;;;;4938955;28;20061;-81
2022/08/17 14:22:00;;;;;;;5.15;4.65;;;30.90;92.30;;;;;;4938760;28;20483;-77
2022/08/17 14:24:32;;;;;;;6.20;4.18;;;31.60;88.10;;;;;;4940400;29;20553;-79
2022/08/17 14:27:00;;;;;;;5.00;4.50;;;32.70;81.00;;;;;;4955337;28;20043;-81
2022/08/17 14:29:29;;;;;;;9.05;4.75;;;32.80;79.40;;;;;;4939012;28;20092;-80
2022/08/17 14:31:57;;;;;;;5.82;4.40;;;32.70;81.40;;;;;;4940560;29;20036;-81
2022/08/17 14:34:23;;;;;;;8.20;4.47;;;32.80;75.20;;;;;;4939871;29;20094;-77
2022/08/17 14:36:50;;;;;;;5.15;4.28;;;32.60;76.00;;;;;;4939462;28;20032;-80
2022/08/17 14:39:16;;;;;;;6.05;4.25;;;32.90;76.70;;;;;;4938612;28;20032;-77
2022/08/17 14:41:42;;;;;;;5.07;4.60;;;33.10;73.70;;;;;;4938615;29;20036;-79
2022/08/17 14:44:11;;;;;;;4.53;3.83;;;33.90;68.80;;;;;;4938059;28;20502;-76
2022/08/17 14:46:39;;;;;;;5.25;4.72;;;33.50;67.50;;;;;;4939925;28;20111;-76
2022/08/17 14:49:05;;;;;;;4.82;4.05;;;33.70;68.70;;;;;;4939288;28;20091;-76
2022/08/17 14:51:31;;;;;;;6.97;4.35;;;33.70;69.90;;;;;;4939451;28;20068;-76
2022/08/17 14:53:56;;;;;;;4.78;4.22;;;32.80;69.90;;;;;;4942316;28;20067;-79
2022/08/17 14:56:23;;;;;;;4.60;4.20;;;32.20;74.50;;;;;;4954690;28;20130;-76
2022/08/17 14:58:50;;;;;;;5.22;4.57;;;31.70;75.20;;;;;;4937502;28;20090;-77
2022/08/17 15:01:17;;;;;;;7.43;4.70;;;31.20;74.50;;;;;;4938173;28;20035;-75
2022/08/17 15:03:42;;;;;;;5.30;4.60;;;30.90;76.80;;;;;;4954398;28;20062;-75
2022/08/17 15:06:08;;;;;;;5.38;4.82;;;30.60;77.30;;;;;;4956825;28;20482;-77
2022/08/17 15:08:34;;;;;;;5.07;4.47;;;30.20;77.10;;;;;;4944873;28;20050;-78
2022/08/17 15:11:03;;;;;;;5.18;4.68;;;30.00;80.90;;;;;;4956855;28;20074;-76
2022/08/17 15:13:29;;;;;;;5.50;4.85;;;29.60;77.50;;;;;;4956166;28;20513;-77
2022/08/17 15:15:55;;;;;;;7.07;4.50;;;29.40;77.70;;;;;;4936681;28;20051;-76
2022/08/17 15:18:21;;;;;;;5.38;4.88;;;29.30;81.60;;;;;;4948577;28;20393;-77
2022/08/17 15:20:48;;;;;;;6.82;4.45;;;29.40;83.60;;;;;;4956700;28;20027;-76
2022/08/17 15:23:17;;;;;;;5.63;4.50;;;29.70;86.70;;;;;;4955692;28;20107;-75
2022/08/17 15:25:45;;;;;;;6.05;4.30;;;29.60;88.70;;;;;;4937990;28;20044;-75
2022/08/17 15:28:11;;;;;;;6.35;4.88;;;29.60;86.80;;;;;;4937422;28;20634;-76
2022/08/17 15:30:41;;;;;;;5.30;4.53;;;29.50;82.50;;;;;;4954623;28;20042;-76
2022/08/17 15:33:11;;;;;;;6.10;4.47;;;29.20;80.70;;;;;;4954918;28;20111;-75
2022/08/17 15:35:37;;;;;;;5.53;4.20;;;29.20;83.70;;;;;;4945734;28;20391;-76
2022/08/17 15:38:06;;;;;;;4.38;3.97;;;29.00;83.40;;;;;;4947509;28;20071;-79
2022/08/17 15:40:32;;;;;;;5.40;4.90;;;28.80;83.70;;;;;;4939285;28;20039;-76
2022/08/17 15:43:10;;;;;;;4.50;4.10;;;28.80;85.20;;;;;;4936321;29;20043;-76
2022/08/17 15:45:37;;;;;;;7.43;4.93;;;28.70;79.60;;;;;;4936689;28;20059;-76
2022/08/17 15:48:03;;;;;;;5.10;4.60;;;28.60;81.00;;;;;;4937130;28;20056;-75
2022/08/17 15:50:28;;;;;;;5.97;4.72;;;28.60;83.70;;;;;;4937945;28;20083;-77
2022/08/17 15:52:59;;;;;;;9.15;4.63;;;28.60;81.60;;;;;;4937496;28;20435;-77
2022/08/17 15:55:26;;;;;;;4.35;3.95;;;28.70;83.60;;;;;;4936446;28;20040;-77
2022/08/17 15:57:52;;;;;;;7.18;4.80;;;28.70;85.40;;;;;;4937379;28;20032;-74
2022/08/17 16:00:18;;;;;;;6.80;4.72;;;28.70;82.70;;;;;;4949184;28;20043;-77
2022/08/17 16:02:44;;;;;;;6.47;4.80;;;28.60;83.50;;;;;;4944187;28;20032;-77
2022/08/17 16:05:15;;;;;;;6.15;4.47;;;28.70;85.40;;;;;;4944986;28;20052;-77
2022/08/17 16:07:41;;;;;;;7.13;4.70;;;28.80;81.10;;;;;;4946954;28;20035;-77
2022/08/17 16:10:08;;;;;;;5.75;4.60;;;28.80;86.20;;;;;;4946327;28;20490;-77
2022/08/17 16:12:34;;;;;;;4.78;4.28;;;28.60;83.00;;;;;;4943731;28;20510;-77
2022/08/17 16:15:01;;;;;;;4.97;4.57;;;28.70;81.90;;;;;;4952217;28;20046;-75
2022/08/17 16:17:27;;;;;;;5.63;4.38;;;28.80;81.30;;;;;;4959198;28;20063;-75
2022/08/17 16:19:53;;;;;;;4.85;4.45;;;28.70;86.30;;;;;;4943407;28;20636;-76
2022/08/17 16:22:32;;;;;;;6.43;4.65;;;28.40;88.20;;;;;;4940105;28;20032;-76
2022/08/17 16:25:00;;;;;;;4.82;4.43;;;28.20;89.80;;;;;;4939531;28;20096;-77
2022/08/17 16:27:25;;;;;;;5.90;4.80;;;27.90;89.20;;;;;;4938626;28;20036;-78
2022/08/17 16:29:51;;;;;;;5.43;4.70;;;27.70;89.40;;;;;;4969866;28;20028;-77
2022/08/17 16:32:22;;;;;;;5.93;4.57;;;27.70;90.40;;;;;;4956806;28;20031;-76
2022/08/17 16:34:47;;;;;;;5.18;4.78;;;27.50;91.80;;;;;;4958465;28;20480;-77
2022/08/17 16:37:13;;;;;;;5.25;4.75;;;27.40;92.50;;;;;;4944051;28;20044;-76
2022/08/17 16:39:39;;;;;;;5.22;4.72;;;27.30;92.90;;;;;;4951777;28;20498;-76
2022/08/17 16:42:32;;;;;;;5.88;5.28;;;27.10;93.30;;;;;;4957389;28;20118;-75
2022/08/17 16:45:13;;;;;;;6.72;4.93;;;26.90;93.30;;;;;;4958632;28;20122;-75
2022/08/17 16:47:40;;;;;;;5.55;4.72;;;26.80;93.60;;;;;;4940145;28;20064;-75
2022/08/17 16:50:08;;;;;;;6.40;4.75;;;26.80;93.60;;;;;;4938114;29;20036;-75
2022/08/17 16:52:34;;;;;;;5.50;4.75;;;26.60;94.00;;;;;;4939178;29;20498;-76
2022/08/17 16:55:01;;;;;;;6.13;4.80;;;26.50;94.10;;;;;;4952601;28;20032;-76
2022/08/17 16:57:28;;;;;;;5.35;4.80;;;26.40;95.10;;;;;;4945872;28;20091;-75
2022/08/17 16:59:55;;;;;;;6.80;5.28;;;26.20;95.60;;;;;;4945935;28;20043;-75
2022/08/17 17:02:27;;;;;;;9.90;5.78;;;26.10;95.50;;;;;;4958124;28;20035;-75
2022/08/17 17:05:10;;;;;;;6.68;5.32;;;25.80;96.30;;;;;;4945443;28;20568;-75
2022/08/17 17:07:49;;;;;;;5.65;5.03;;;25.50;97.10;;;;;;4956196;28;20135;-75
2022/08/17 17:10:21;;;;;;;6.95;5.40;;;25.30;97.20;;;;;;4940032;28;20040;-75
2022/08/17 17:12:47;;;;;;;6.45;5.18;;;25.10;97.40;;;;;;4938549;28;20040;-75
2022/08/17 17:15:14;;;;;;;6.30;5.63;;;24.90;97.70;;;;;;4951124;28;20132;-75
2022/08/17 17:17:41;;;;;;;9.30;6.10;;;24.60;98.30;;;;;;4943139;28;20502;-76
2022/08/17 17:20:23;;;;;;;6.38;5.75;;;24.60;98.80;;;;;;4954292;28;20043;-76
2022/08/17 17:23:08;;;;;;;5.85;5.28;;;24.50;98.80;;;;;;4945281;28;20036;-78
2022/08/17 17:26:06;;;;;;;6.88;5.93;;;24.30;98.70;;;;;;4956216;28;20058;-79
2022/08/17 17:28:50;;;;;;;6.65;5.70;;;24.20;98.90;;;;;;4955623;28;20181;-80
2022/08/17 17:31:19;;;;;;;6.45;5.85;;;24.10;99.30;;;;;;4949064;28;20044;-78
2022/08/17 17:33:55;;;;;;;6.50;5.28;;;24.00;99.60;;;;;;4939979;28;20042;-77
2022/08/17 17:36:21;;;;;;;8.40;6.13;;;23.90;99.70;;;;;;4939487;28;20486;-78
2022/08/17 17:38:52;;;;;;;9.35;6.22;;;23.80;99.90;;;;;;4939604;28;20032;-77
2022/08/17 17:41:31;;;;;;;7.13;6.10;;;23.60;99.90;;;;;;4947035;28;20043;-77